Time;durP1;ratioP1;P1;durP2;ratioP2;P2;SDS_P1;SDS_P2;PMS_P1;PMS_P2;Temp;Humidity;BMP_temperature;BMP_pressure;BME280_temperature;BME280_humidity;BME280_pressure;Samples;Min_cycle;Max_cycle;Signal;HPM_P1;HPM_P2
2022/01/09 00:00:23;;;;;;;3.53;3.03;;;;;;;;;;6279108;22;20030;-94
2022/01/09 00:02:51;;;;;;;3.83;2.95;;;;;;;;;;6278718;22;20050;-94
2022/01/09 00:05:23;;;;;;;4.20;3.20;;;;;;;;;;6279232;22;20014;-93
2022/01/09 00:07:59;;;;;;;3.80;3.00;;;;;;;;;;6279672;22;20010;-94
2022/01/09 00:10:34;;;;;;;3.40;3.00;;;;;;;;;;6276975;22;20047;-95
2022/01/09 00:19:54;;;;;;;4.22;2.90;;;;;;;;;;6305248;22;19994;-94
2022/01/09 00:22:32;;;;;;;3.70;2.55;;;;;;;;;;6279280;22;20039;-94
2022/01/09 00:25:16;;;;;;;3.20;2.88;;;;;;;;;;6279879;22;20023;-95
2022/01/09 00:27:43;;;;;;;3.40;2.58;;;;;;;;;;6275435;22;20084;-95
2022/01/09 00:30:40;;;;;;;3.55;2.60;;;;;;;;;;6282565;22;20026;-95
2022/01/09 00:33:30;;;;;;;4.72;2.88;;;;;;;;;;6272666;22;20031;-92
2022/01/09 00:35:58;;;;;;;3.95;2.67;;;;;;;;;;6267989;22;20012;-94
2022/01/09 18:00:39;;;;;;;15.85;2.35;;;;;;;;;;6242466;22;20000;-95
2022/01/09 18:03:07;;;;;;;13.70;1.70;;;;;;;;;;6292495;22;20015;-93
2022/01/09 18:05:35;;;;;;;5.20;1.58;;;;;;;;;;6305278;22;20018;-94
2022/01/09 19:31:55;;;;;;;15.60;2.90;;;;;;;;;;6292100;22;19996;-94
2022/01/09 19:34:28;;;;;;;10.90;2.50;;;;;;;;;;6312108;22;20011;-93
2022/01/09 19:37:09;;;;;;;12.82;2.55;;;;;;;;;;6312586;22;20003;-93
2022/01/09 19:39:52;;;;;;;8.85;2.70;;;;;;;;;;6308908;22;20007;-95
2022/01/09 19:42:34;;;;;;;10.93;2.67;;;;;;;;;;6312645;22;20031;-95
2022/01/09 19:45:16;;;;;;;16.48;3.70;;;;;;;;;;6293124;22;20037;-94
2022/01/09 19:47:45;;;;;;;15.88;2.45;;;;;;;;;;6311113;22;20039;-94
2022/01/09 19:50:15;;;;;;;14.00;2.85;;;;;;;;;;6311302;22;20083;-94
2022/01/09 19:52:52;;;;;;;9.52;2.60;;;;;;;;;;6312448;22;20011;-93
2022/01/09 19:55:22;;;;;;;9.52;2.80;;;;;;;;;;6310660;22;20017;-94
2022/01/09 19:58:03;;;;;;;14.38;3.50;;;;;;;;;;6312967;22;20019;-94
2022/01/09 20:00:31;;;;;;;14.40;3.22;;;;;;;;;;6310294;22;20063;-94
2022/01/09 20:03:04;;;;;;;8.40;2.38;;;;;;;;;;6311871;22;20011;-95
2022/01/09 20:05:40;;;;;;;16.10;3.05;;;;;;;;;;6336862;22;20018;-95
2022/01/09 20:08:10;;;;;;;10.55;3.45;;;;;;;;;;6311326;22;20038;-94
2022/01/09 20:10:38;;;;;;;14.43;2.70;;;;;;;;;;6310629;22;20015;-94
2022/01/09 20:13:19;;;;;;;15.13;3.47;;;;;;;;;;6310877;22;20007;-94
2022/01/09 20:15:50;;;;;;;12.15;3.72;;;;;;;;;;6311017;22;20011;-93
2022/01/09 20:18:23;;;;;;;12.52;3.17;;;;;;;;;;6311445;22;20007;-94
2022/01/09 20:20:52;;;;;;;9.73;2.60;;;;;;;;;;6310654;22;20054;-94
2022/01/09 20:23:24;;;;;;;14.38;3.25;;;;;;;;;;6311057;22;20011;-94
2022/01/09 20:25:58;;;;;;;16.73;3.25;;;;;;;;;;6310464;22;20015;-95
2022/01/09 20:28:30;;;;;;;17.45;3.20;;;;;;;;;;6310456;22;20042;-95
2022/01/09 20:30:59;;;;;;;14.27;3.28;;;;;;;;;;6309905;22;20014;-94
2022/01/09 20:33:32;;;;;;;15.52;3.20;;;;;;;;;;6310617;22;20008;-93
2022/01/09 20:36:12;;;;;;;16.42;3.10;;;;;;;;;;6312818;22;20018;-93
2022/01/09 20:38:45;;;;;;;13.57;3.83;;;;;;;;;;6311074;22;20018;-94
2022/01/09 20:41:18;;;;;;;17.73;3.38;;;;;;;;;;6310882;22;20023;-94
2022/01/09 20:43:53;;;;;;;14.23;3.20;;;;;;;;;;6336330;22;20011;-94
2022/01/09 20:46:22;;;;;;;14.40;3.03;;;;;;;;;;6310366;22;20011;-95
2022/01/09 20:48:54;;;;;;;22.15;2.92;;;;;;;;;;6310769;22;20046;-95
2022/01/09 20:51:39;;;;;;;20.30;3.80;;;;;;;;;;6332967;22;20023;-93
2022/01/09 20:54:20;;;;;;;10.52;3.35;;;;;;;;;;6312471;22;20015;-93
2022/01/09 20:56:54;;;;;;;10.50;3.93;;;;;;;;;;6310842;22;20012;-94
2022/01/09 20:59:22;;;;;;;14.73;3.05;;;;;;;;;;6309362;22;20050;-93
2022/01/09 21:01:51;;;;;;;13.82;4.05;;;;;;;;;;6309317;22;20015;-94
2022/01/09 21:04:19;;;;;;;17.35;3.00;;;;;;;;;;6309420;22;20083;-94
2022/01/09 21:06:51;;;;;;;9.40;2.72;;;;;;;;;;6310211;22;20041;-93
2022/01/09 21:09:20;;;;;;;18.58;3.13;;;;;;;;;;6310286;22;20011;-93
2022/01/09 21:12:01;;;;;;;15.27;3.70;;;;;;;;;;6311583;22;20003;-93
2022/01/09 21:14:47;;;;;;;14.23;3.17;;;;;;;;;;6312306;22;20003;-94
2022/01/09 21:24:12;;;;;;;13.15;3.50;;;;;;;;;;6336449;22;19998;-93
2022/01/09 21:26:42;;;;;;;16.90;3.63;;;;;;;;;;6313095;22;20066;-95
2022/01/09 21:29:13;;;;;;;11.32;3.10;;;;;;;;;;6313808;22;20007;-93
2022/01/09 21:31:45;;;;;;;15.32;3.95;;;;;;;;;;6313999;22;20018;-94
2022/01/09 21:34:16;;;;;;;11.73;3.20;;;;;;;;;;6313411;22;20007;-94
2022/01/09 21:36:47;;;;;;;15.25;3.92;;;;;;;;;;6313513;22;20015;-94
2022/01/09 21:39:15;;;;;;;13.90;3.70;;;;;;;;;;6313139;22;20011;-95
2022/01/09 21:41:44;;;;;;;15.68;4.53;;;;;;;;;;6313284;22;20014;-96
2022/01/09 21:44:18;;;;;;;13.77;3.53;;;;;;;;;;6314114;22;20023;-95
2022/01/09 21:46:46;;;;;;;25.13;4.43;;;;;;;;;;6313081;22;20027;-95
2022/01/09 21:49:14;;;;;;;26.02;4.55;;;;;;;;;;6313029;22;20037;-94
2022/01/09 21:51:43;;;;;;;12.13;3.28;;;;;;;;;;6313263;22;20011;-95
2022/01/09 21:54:15;;;;;;;13.80;3.60;;;;;;;;;;6313196;22;20014;-93
2022/01/09 21:56:50;;;;;;;17.00;4.15;;;;;;;;;;6313139;22;20011;-93
2022/01/09 21:59:20;;;;;;;11.75;4.20;;;;;;;;;;6339057;22;20011;-92
2022/01/09 22:01:49;;;;;;;15.02;3.85;;;;;;;;;;6313131;22;20012;-94
2022/01/09 22:04:18;;;;;;;13.48;4.30;;;;;;;;;;6313045;22;20030;-94
2022/01/09 22:06:53;;;;;;;25.27;6.07;;;;;;;;;;6314649;22;20011;-93
2022/01/09 22:09:22;;;;;;;27.00;4.63;;;;;;;;;;6313177;22;20015;-94
2022/01/09 22:11:50;;;;;;;19.73;4.30;;;;;;;;;;6313004;22;20011;-92
2022/01/09 22:14:21;;;;;;;19.50;7.72;;;;;;;;;;6313699;22;20038;-94
2022/01/09 22:16:49;;;;;;;23.02;5.63;;;;;;;;;;6312716;22;20011;-93
2022/01/09 22:19:16;;;;;;;11.23;4.13;;;;;;;;;;6312743;22;20007;-92
2022/01/09 22:21:45;;;;;;;20.88;4.20;;;;;;;;;;6312783;22;20025;-92
2022/01/09 22:24:14;;;;;;;19.77;4.32;;;;;;;;;;6312705;22;20015;-94
2022/01/09 22:26:56;;;;;;;17.00;4.18;;;;;;;;;;6338014;22;20040;-95
2022/01/09 22:29:43;;;;;;;23.40;4.63;;;;;;;;;;6276825;22;20027;-93
2022/01/09 22:32:12;;;;;;;21.60;6.13;;;;;;;;;;6251172;22;20018;-96
2022/01/09 22:34:40;;;;;;;16.48;5.35;;;;;;;;;;6250773;22;20027;-95
2022/01/09 22:37:09;;;;;;;19.65;4.40;;;;;;;;;;6250178;22;20016;-94
2022/01/09 22:46:46;;;;;;;21.17;5.25;;;;;;;;;;6275192;22;20049;-93
2022/01/09 22:49:14;;;;;;;20.42;5.00;;;;;;;;;;6249347;22;20008;-93
2022/01/09 22:51:46;;;;;;;28.73;5.15;;;;;;;;;;6226698;22;20012;-93
2022/01/09 22:54:17;;;;;;;24.45;5.07;;;;;;;;;;6250074;22;20016;-94
2022/01/09 22:56:44;;;;;;;23.88;5.32;;;;;;;;;;6249183;22;20035;-94
2022/01/09 22:59:11;;;;;;;16.30;4.55;;;;;;;;;;6249021;22;20008;-94
2022/01/09 23:01:55;;;;;;;16.63;5.22;;;;;;;;;;6249096;22;20032;-93
2022/01/09 23:04:23;;;;;;;21.30;5.57;;;;;;;;;;6249244;22;20039;-94
2022/01/09 23:06:54;;;;;;;20.15;5.68;;;;;;;;;;6274923;22;20008;-94
2022/01/09 23:09:21;;;;;;;20.35;5.30;;;;;;;;;;6249234;22;20032;-93
2022/01/09 23:15:20;;;;;;;21.50;5.18;;;;;;;;;;6274902;22;20022;-94
2022/01/09 23:17:48;;;;;;;20.83;5.30;;;;;;;;;;6249121;22;20012;-94
2022/01/09 23:20:17;;;;;;;20.42;4.95;;;;;;;;;;6249139;22;20015;-95
2022/01/09 23:22:44;;;;;;;24.73;5.18;;;;;;;;;;6249020;22;20026;-94
2022/01/09 23:31:53;;;;;;;21.05;5.03;;;;;;;;;;6274544;22;20015;-94
2022/01/09 23:34:21;;;;;;;16.98;5.40;;;;;;;;;;6248758;22;20012;-93
2022/01/09 23:37:12;;;;;;;25.20;4.60;;;;;;;;;;6248710;22;20061;-94
2022/01/09 23:39:40;;;;;;;18.70;4.53;;;;;;;;;;6248655;22;20012;-94
2022/01/09 23:42:13;;;;;;;18.73;4.30;;;;;;;;;;6249004;22;20018;-93
2022/01/09 23:44:56;;;;;;;26.35;4.97;;;;;;;;;;6242278;22;20039;-93
2022/01/09 23:47:31;;;;;;;21.90;4.82;;;;;;;;;;6248736;22;20019;-94
2022/01/09 23:53:05;;;;;;;16.70;4.68;;;;;;;;;;6274440;22;20027;-94
2022/01/09 23:55:33;;;;;;;19.80;5.18;;;;;;;;;;6248987;22;20035;-94
2022/01/09 23:58:08;;;;;;;18.58;4.25;;;;;;;;;;6248816;22;20008;-94
